Amuesa — CQOC — position and weather

sailwx.info

Track history (hours):
 
Tides and Currents Weather Stations Pressure Air Temp Water Temp Dewpoint Dewpoint Depression Visibility Wind Speed Wind Dir Waves Ship Positions

Amuesa

Last reported at 2018-Feb-20 22:52 UTC. Time now 2018-Feb-22 05:25 UTC.
Position N 40°17' W 009°49'.

Length 90 m; draft 4 m.

Type: Cargo ship. MMSI: 255802640.

Date/timePositionNaut miles runAvg speedWind from/ knotsBaromVisibWave heightAir tempDewpointWater temp
2018-Feb-20 22:52N 40°17' W 009°49'2 6.9
2018-Feb-20 22:30N 40°14' W 009°49'3 6.7
2018-Feb-20 22:00N 40°11' W 009°49'4 6.8
2018-Feb-20 21:27N 40°07' W 009°49'3 6.8
2018-Feb-20 21:00N 40°04' W 009°49'7 6.8
2018-Feb-20 19:56N 39°57' W 009°50'4 6.8
2018-Feb-20 19:22N 39°53' W 009°50'3 6.6
2018-Feb-20 18:56N 39°50' W 009°50'4 6.9
2018-Feb-20 18:21N 39°46' W 009°50'5 6.7
2018-Feb-20 17:35N 39°41' W 009°50'1 6.6
2018-Feb-20 17:30N 39°41' W 009°50'4 6.9
2018-Feb-20 16:54N 39°36' W 009°50'6 6.9
2018-Feb-20 16:06N 39°31' W 009°50'1 5.1
2018-Feb-20 15:58N 39°30' W 009°50'3 5.2
2018-Feb-20 15:19N 39°27' W 009°50'2 5.4
2018-Feb-20 14:59N 39°25' W 009°50'2 5.2
2018-Feb-20 14:30N 39°23' W 009°50'3 5.1
2018-Feb-20 14:00N 39°20' W 009°50'3 5.2
2018-Feb-20 13:30N 39°17' W 009°50'3 5.1
2018-Feb-20 13:00N 39°15' W 009°50'2 4.9
2018-Feb-20 12:30N 39°12' W 009°51'2 4.8
2018-Feb-20 12:00N 39°10' W 009°51'2 5.0
2018-Feb-20 11:30N 39°07' W 009°51'3 5.0
2018-Feb-20 11:00N 39°05' W 009°51'3 5.2
2018-Feb-20 10:30N 39°02' W 009°50'2 5.0
2018-Feb-20 10:00N 38°60' W 009°50'3 4.8
2018-Feb-20 09:29N 38°57' W 009°51'2 4.8
2018-Feb-20 09:00N 38°55' W 009°51'2 4.7
2018-Feb-20 08:30N 38°53' W 009°51'2 4.8
2018-Feb-20 08:00N 38°50' W 009°51'2 4.8
2018-Feb-20 07:30N 38°48' W 009°51'3 4.9
2018-Feb-20 07:00N 38°45' W 009°51'2 5.1
2018-Feb-20 06:30N 38°43' W 009°51'2 4.9
2018-Feb-20 06:00N 38°41' W 009°50'2 5.0
2018-Feb-20 05:30N 38°38' W 009°50'3 5.7
2018-Feb-20 05:00N 38°38' W 009°46'3 6.0
2018-Feb-20 04:30N 38°38' W 009°42'3 6.0
2018-Feb-20 04:00N 38°37' W 009°38'3 6.1
2018-Feb-20 03:30N 38°37' W 009°34'3 6.3
2018-Feb-20 03:00N 38°37' W 009°30'3 6.6
2018-Feb-20 02:30N 38°37' W 009°26'4 8.0
2018-Feb-20 02:00N 38°38' W 009°21'4 8.3
2018-Feb-20 01:29N 38°41' W 009°17'6 8.7
2018-Feb-20 00:46N 38°42' W 009°09'2 8.9
2018-Feb-20 00:30N 38°43' W 009°07'1 2.9
2018-Feb-20 00:00N 38°44' W 009°06'0 0.0
2018-Feb-19 23:30N 38°44' W 009°06'0 0.0
2018-Feb-19 23:00N 38°44' W 009°06'0 0.0
2018-Feb-19 22:30N 38°44' W 009°06'0 0.0
2018-Feb-19 21:54N 38°44' W 009°06'0 0.0
2018-Feb-19 21:24N 38°44' W 009°06'0 0.0
2018-Feb-19 21:00N 38°44' W 009°06'0 0.0
2018-Feb-19 20:30N 38°44' W 009°06'0 0.0
2018-Feb-19 19:57N 38°44' W 009°06'0 0.0
2018-Feb-19 19:27N 38°44' W 009°06'0 0.0
2018-Feb-19 19:00N 38°44' W 009°06'0 0.0
2018-Feb-19 18:30N 38°44' W 009°06'0 0.0
2018-Feb-19 17:57N 38°44' W 009°06'0 0.0
2018-Feb-19 17:27N 38°44' W 009°06'0 0.0
2018-Feb-19 16:57N 38°44' W 009°06'0 0.0
2018-Feb-19 16:30N 38°44' W 009°06'0 0.0
2018-Feb-19 16:00N 38°44' W 009°06'0 0.0
2018-Feb-19 15:30N 38°44' W 009°06'0 0.0
2018-Feb-19 15:00N 38°44' W 009°06'0 0.0
2018-Feb-19 14:15N 38°44' W 009°06'0 0.0
2018-Feb-19 14:00N 38°44' W 009°06'0 0.0
2018-Feb-19 13:30N 38°44' W 009°06'0 0.0
2018-Feb-19 13:00N 38°44' W 009°06'0 0.0
2018-Feb-19 12:30N 38°44' W 009°06'0 0.0
2018-Feb-19 12:00N 38°44' W 009°06'0 0.0
2018-Feb-19 11:30N 38°44' W 009°06'0 0.0
2018-Feb-19 11:00N 38°44' W 009°06'0 0.0
2018-Feb-19 10:30N 38°44' W 009°06'0 0.0
2018-Feb-19 10:00N 38°44' W 009°06'0 0.0
2018-Feb-19 09:30N 38°44' W 009°06'0 0.0
2018-Feb-19 09:00N 38°44' W 009°06'0 0.0
2018-Feb-19 08:21N 38°44' W 009°06'0 0.0
2018-Feb-19 07:57N 38°44' W 009°06'0 0.0
2018-Feb-19 07:30N 38°44' W 009°06'0 0.0
2018-Feb-19 07:00N 38°44' W 009°06'0 0.0
2018-Feb-19 06:30N 38°44' W 009°06'0 0.0
2018-Feb-19 06:00N 38°44' W 009°06'0 0.0
2018-Feb-19 05:30N 38°44' W 009°06'0 0.0
2018-Feb-19 05:00N 38°44' W 009°06'0 0.0
2018-Feb-19 04:30N 38°44' W 009°06'0 0.0
2018-Feb-19 03:51N 38°44' W 009°06'0 0.0
2018-Feb-19 03:30N 38°44' W 009°06'0 0.0
2018-Feb-19 02:54N 38°44' W 009°06'0 0.0
2018-Feb-19 02:30N 38°44' W 009°06'0 0.0
2018-Feb-19 02:00N 38°44' W 009°06'0 0.0
2018-Feb-19 01:27N 38°44' W 009°06'0 0.0
2018-Feb-19 01:00N 38°44' W 009°06'0 0.0
2018-Feb-19 00:30N 38°44' W 009°06'0 0.0
2018-Feb-19 00:00N 38°44' W 009°06'0 0.0
2018-Feb-18 23:30N 38°44' W 009°06'0 0.0
2018-Feb-18 22:57N 38°44' W 009°06'0 0.0
2018-Feb-18 22:27N 38°44' W 009°06'0 0.0
2018-Feb-18 22:00N 38°44' W 009°06'0 0.0
2018-Feb-18 21:15N 38°44' W 009°06'0 0.0
2018-Feb-18 20:27N 38°44' W 009°06'0 0.0
2018-Feb-18 19:54N 38°44' W 009°06'0 0.0
2018-Feb-18 19:09N 38°44' W 009°06'0 0.0
2018-Feb-18 18:42N 38°44' W 009°06'0 0.0
2018-Feb-18 18:30N 38°44' W 009°06'0 0.0
2018-Feb-18 18:00N 38°44' W 009°06'0 0.0
2018-Feb-18 17:24N 38°44' W 009°06'0 0.0
2018-Feb-18 16:57N 38°44' W 009°06'0 0.0
2018-Feb-18 14:45N 38°44' W 009°06'0 0.0
2018-Feb-18 14:30N 38°44' W 009°06'0 0.0
2018-Feb-18 14:00N 38°44' W 009°06'0 0.0
2018-Feb-18 13:30N 38°44' W 009°06'0 0.0
2018-Feb-18 12:54N 38°44' W 009°06'0 0.0
2018-Feb-18 12:30N 38°44' W 009°06'0 0.0
2018-Feb-18 11:57N 38°44' W 009°06'0 0.0
2018-Feb-18 11:30N 38°44' W 009°06'0 0.0
2018-Feb-18 11:00N 38°44' W 009°06'0 0.0
2018-Feb-18 10:30N 38°44' W 009°06'0 0.0
2018-Feb-18 10:00N 38°44' W 009°06'0 0.0
2018-Feb-18 09:30N 38°44' W 009°06'2 3.4
2018-Feb-18 09:00N 38°43' W 009°07'3 6.3
2018-Feb-18 08:30N 38°42' W 009°11'3 6.2
2018-Feb-18 08:00N 38°41' W 009°15'3 5.3
2018-Feb-18 07:30N 38°40' W 009°18'3 6.1
2018-Feb-18 07:00N 38°38' W 009°21'3 5.5
2018-Feb-18 06:30N 38°37' W 009°24'3 5.5
2018-Feb-18 06:00N 38°40' W 009°24'0 0.3
2018-Feb-18 05:30N 38°40' W 009°24'0 0.0
2018-Feb-18 05:00N 38°40' W 009°24'0 0.0
2018-Feb-18 04:30N 38°40' W 009°24'0 0.1
2018-Feb-18 04:00N 38°40' W 009°24'0 0.1
2018-Feb-18 03:30N 38°40' W 009°24'0 0.0
2018-Feb-18 03:00N 38°40' W 009°24'0 0.1
2018-Feb-18 02:30N 38°40' W 009°24'0 0.1
2018-Feb-18 01:57N 38°40' W 009°24'0 0.0
2018-Feb-18 01:27N 38°40' W 009°24'0 0.0
2018-Feb-18 01:00N 38°40' W 009°24'0 0.0
2018-Feb-18 00:30N 38°40' W 009°24'0 0.0
2018-Feb-18 00:00N 38°40' W 009°24'0 0.0
2018-Feb-17 23:27N 38°40' W 009°24'0 0.0
2018-Feb-17 22:57N 38°40' W 009°24'0 0.0
2018-Feb-17 22:27N 38°40' W 009°24'0 0.0
2018-Feb-17 22:00N 38°40' W 009°24'0 0.0
2018-Feb-17 21:30N 38°40' W 009°24'0 0.0
2018-Feb-17 21:00N 38°40' W 009°24'0 0.0
2018-Feb-17 20:30N 38°40' W 009°24'0 0.0
2018-Feb-17 20:00N 38°40' W 009°24'0 0.0
2018-Feb-17 19:30N 38°40' W 009°24'0 0.0
2018-Feb-17 19:00N 38°40' W 009°24'0 0.0
2018-Feb-17 18:30N 38°40' W 009°24'0 0.0
2018-Feb-17 18:00N 38°40' W 009°24'0 0.0
2018-Feb-17 17:30N 38°40' W 009°24'0 0.0
2018-Feb-17 17:00N 38°40' W 009°24'0 0.0
2018-Feb-17 16:30N 38°40' W 009°24'0 0.0
2018-Feb-17 16:00N 38°40' W 009°24'0 0.0
2018-Feb-17 15:30N 38°40' W 009°24'0 0.0
2018-Feb-17 15:00N 38°40' W 009°24'0 0.0
2018-Feb-17 14:30N 38°40' W 009°24'0 0.0
2018-Feb-17 13:54N 38°40' W 009°24'0 0.0
2018-Feb-17 13:30N 38°40' W 009°24'0 0.0
2018-Feb-17 13:00N 38°40' W 009°24'0 0.0
2018-Feb-17 12:27N 38°40' W 009°24'0 0.0
2018-Feb-17 11:57N 38°40' W 009°24'0 0.0
2018-Feb-17 11:30N 38°40' W 009°24'0 0.0
2018-Feb-17 11:00N 38°40' W 009°24'0 0.0
2018-Feb-17 10:30N 38°40' W 009°24'0 0.0
2018-Feb-17 10:00N 38°40' W 009°24'0 0.0
2018-Feb-17 09:30N 38°40' W 009°24'0 0.0
2018-Feb-17 09:00N 38°40' W 009°24'0 0.0
2018-Feb-17 08:30N 38°40' W 009°24'0 0.0
2018-Feb-17 08:00N 38°40' W 009°24'0 0.0
2018-Feb-17 07:30N 38°40' W 009°24'0 0.0
2018-Feb-17 07:00N 38°40' W 009°24'0 0.0
2018-Feb-17 06:27N 38°40' W 009°24'0 0.0
2018-Feb-17 06:00N 38°40' W 009°24'0 0.0
2018-Feb-17 05:24N 38°40' W 009°24'0 0.0
2018-Feb-17 04:54N 38°40' W 009°24'0 0.0
2018-Feb-17 04:27N 38°40' W 009°24'0 0.1
2018-Feb-17 04:00N 38°40' W 009°24'0 0.0
2018-Feb-17 03:30N 38°40' W 009°24'0 0.0
2018-Feb-17 03:00N 38°40' W 009°24'0 0.0
2018-Feb-17 02:27N 38°40' W 009°24'0 0.0
2018-Feb-17 02:00N 38°40' W 009°24'0 0.0
2018-Feb-17 01:30N 38°40' W 009°24'0 0.0
2018-Feb-17 01:00N 38°40' W 009°24'0 0.0
2018-Feb-17 00:30N 38°40' W 009°24'0 0.0
2018-Feb-17 00:01N 38°40' W 009°24'2 3.0
2018-Feb-16 23:30N 38°39' W 009°25'4 7.9
2018-Feb-16 23:00N 38°38' W 009°30'4 8.9
2018-Feb-16 22:30N 38°38' W 009°36'4 8.8
2018-Feb-16 22:00N 38°38' W 009°42'4 8.3
2018-Feb-16 21:30N 38°43' W 009°43'4 9.1
2018-Feb-16 21:00N 38°47' W 009°43'5 9.4
2018-Feb-16 20:30N 38°52' W 009°44'5 9.0
2018-Feb-16 20:00N 38°56' W 009°44'5 9.5
2018-Feb-16 19:30N 39°01' W 009°44'5 9.5
2018-Feb-16 19:00N 39°06' W 009°44'5 9.6
2018-Feb-16 18:30N 39°11' W 009°45'5 9.3
2018-Feb-16 18:00N 39°15' W 009°45'5 9.1
2018-Feb-16 17:30N 39°20' W 009°45'4 8.8
2018-Feb-16 17:00N 39°24' W 009°46'5 8.8
2018-Feb-16 16:24N 39°29' W 009°47'4 9.1
2018-Feb-16 15:59N 39°33' W 009°47'6 9.1
2018-Feb-16 15:20N 39°39' W 009°47'  
2018-Feb-12 23:44N 45°35' W 001°29'2 8.0
2018-Feb-12 23:30N 45°36' W 001°26'4 7.6
2018-Feb-12 23:00N 45°37' W 001°21'4 7.8
2018-Feb-12 22:28N 45°39' W 001°16'4 8.6
2018-Feb-12 22:00N 45°39' W 001°10'5 9.4
2018-Feb-12 21:30N 45°37' W 001°05'5 9.8
2018-Feb-12 21:00N 45°33' W 001°01'510.2
2018-Feb-12 20:30N 45°29' W 000°56'510.0
2018-Feb-12 20:00N 45°25' W 000°52'611.1
2018-Feb-12 19:30N 45°20' W 000°47'  
Track history (hours):
 
Tides and Currents Weather Stations Pressure Air Temp Water Temp Dewpoint Dewpoint Depression Visibility Wind Speed Wind Dir Waves Ship Positions

Amuesa

Last reported at 2018-Feb-20 22:52 UTC. Time now 2018-Feb-22 05:25 UTC.
Position N 40°17' W 009°49'.

Length 90 m; draft 4 m.

Type: Cargo ship. MMSI: 255802640.

Date/timePositionNaut miles runAvg speedWind from/ knotsBaromVisibWave heightAir tempDewpointWater temp
2018-Feb-20 22:52N 40°17' W 009°49'2 6.9
2018-Feb-20 22:30N 40°14' W 009°49'3 6.7
2018-Feb-20 22:00N 40°11' W 009°49'4 6.8
2018-Feb-20 21:27N 40°07' W 009°49'3 6.8
2018-Feb-20 21:00N 40°04' W 009°49'7 6.8
2018-Feb-20 19:56N 39°57' W 009°50'4 6.8
2018-Feb-20 19:22N 39°53' W 009°50'3 6.6
2018-Feb-20 18:56N 39°50' W 009°50'4 6.9
2018-Feb-20 18:21N 39°46' W 009°50'5 6.7
2018-Feb-20 17:35N 39°41' W 009°50'1 6.6
2018-Feb-20 17:30N 39°41' W 009°50'4 6.9
2018-Feb-20 16:54N 39°36' W 009°50'6 6.9
2018-Feb-20 16:06N 39°31' W 009°50'1 5.1
2018-Feb-20 15:58N 39°30' W 009°50'3 5.2
2018-Feb-20 15:19N 39°27' W 009°50'2 5.4
2018-Feb-20 14:59N 39°25' W 009°50'2 5.2
2018-Feb-20 14:30N 39°23' W 009°50'3 5.1
2018-Feb-20 14:00N 39°20' W 009°50'3 5.2
2018-Feb-20 13:30N 39°17' W 009°50'3 5.1
2018-Feb-20 13:00N 39°15' W 009°50'2 4.9
2018-Feb-20 12:30N 39°12' W 009°51'2 4.8
2018-Feb-20 12:00N 39°10' W 009°51'2 5.0
2018-Feb-20 11:30N 39°07' W 009°51'3 5.0
2018-Feb-20 11:00N 39°05' W 009°51'3 5.2
2018-Feb-20 10:30N 39°02' W 009°50'2 5.0
2018-Feb-20 10:00N 38°60' W 009°50'3 4.8
2018-Feb-20 09:29N 38°57' W 009°51'2 4.8
2018-Feb-20 09:00N 38°55' W 009°51'2 4.7
2018-Feb-20 08:30N 38°53' W 009°51'2 4.8
2018-Feb-20 08:00N 38°50' W 009°51'2 4.8
2018-Feb-20 07:30N 38°48' W 009°51'3 4.9
2018-Feb-20 07:00N 38°45' W 009°51'2 5.1
2018-Feb-20 06:30N 38°43' W 009°51'2 4.9
2018-Feb-20 06:00N 38°41' W 009°50'2 5.0
2018-Feb-20 05:30N 38°38' W 009°50'3 5.7
2018-Feb-20 05:00N 38°38' W 009°46'3 6.0
2018-Feb-20 04:30N 38°38' W 009°42'3 6.0
2018-Feb-20 04:00N 38°37' W 009°38'3 6.1
2018-Feb-20 03:30N 38°37' W 009°34'3 6.3
2018-Feb-20 03:00N 38°37' W 009°30'3 6.6
2018-Feb-20 02:30N 38°37' W 009°26'4 8.0
2018-Feb-20 02:00N 38°38' W 009°21'4 8.3
2018-Feb-20 01:29N 38°41' W 009°17'6 8.7
2018-Feb-20 00:46N 38°42' W 009°09'2 8.9
2018-Feb-20 00:30N 38°43' W 009°07'1 2.9
2018-Feb-20 00:00N 38°44' W 009°06'0 0.0
2018-Feb-19 23:30N 38°44' W 009°06'0 0.0
2018-Feb-19 23:00N 38°44' W 009°06'0 0.0
2018-Feb-19 22:30N 38°44' W 009°06'0 0.0
2018-Feb-19 21:54N 38°44' W 009°06'0 0.0
2018-Feb-19 21:24N 38°44' W 009°06'0 0.0
2018-Feb-19 21:00N 38°44' W 009°06'0 0.0
2018-Feb-19 20:30N 38°44' W 009°06'0 0.0
2018-Feb-19 19:57N 38°44' W 009°06'0 0.0
2018-Feb-19 19:27N 38°44' W 009°06'0 0.0
2018-Feb-19 19:00N 38°44' W 009°06'0 0.0
2018-Feb-19 18:30N 38°44' W 009°06'0 0.0
2018-Feb-19 17:57N 38°44' W 009°06'0 0.0
2018-Feb-19 17:27N 38°44' W 009°06'0 0.0
2018-Feb-19 16:57N 38°44' W 009°06'0 0.0
2018-Feb-19 16:30N 38°44' W 009°06'0 0.0
2018-Feb-19 16:00N 38°44' W 009°06'0 0.0
2018-Feb-19 15:30N 38°44' W 009°06'0 0.0
2018-Feb-19 15:00N 38°44' W 009°06'0 0.0
2018-Feb-19 14:15N 38°44' W 009°06'0 0.0
2018-Feb-19 14:00N 38°44' W 009°06'0 0.0
2018-Feb-19 13:30N 38°44' W 009°06'0 0.0
2018-Feb-19 13:00N 38°44' W 009°06'0 0.0
2018-Feb-19 12:30N 38°44' W 009°06'0 0.0
2018-Feb-19 12:00N 38°44' W 009°06'0 0.0
2018-Feb-19 11:30N 38°44' W 009°06'0 0.0
2018-Feb-19 11:00N 38°44' W 009°06'0 0.0
2018-Feb-19 10:30N 38°44' W 009°06'0 0.0
2018-Feb-19 10:00N 38°44' W 009°06'0 0.0
2018-Feb-19 09:30N 38°44' W 009°06'0 0.0
2018-Feb-19 09:00N 38°44' W 009°06'0 0.0
2018-Feb-19 08:21N 38°44' W 009°06'0 0.0
2018-Feb-19 07:57N 38°44' W 009°06'0 0.0
2018-Feb-19 07:30N 38°44' W 009°06'0 0.0
2018-Feb-19 07:00N 38°44' W 009°06'0 0.0
2018-Feb-19 06:30N 38°44' W 009°06'0 0.0
2018-Feb-19 06:00N 38°44' W 009°06'0 0.0
2018-Feb-19 05:30N 38°44' W 009°06'0 0.0
2018-Feb-19 05:00N 38°44' W 009°06'0 0.0
2018-Feb-19 04:30N 38°44' W 009°06'0 0.0
2018-Feb-19 03:51N 38°44' W 009°06'0 0.0
2018-Feb-19 03:30N 38°44' W 009°06'0 0.0
2018-Feb-19 02:54N 38°44' W 009°06'0 0.0
2018-Feb-19 02:30N 38°44' W 009°06'0 0.0
2018-Feb-19 02:00N 38°44' W 009°06'0 0.0
2018-Feb-19 01:27N 38°44' W 009°06'0 0.0
2018-Feb-19 01:00N 38°44' W 009°06'0 0.0
2018-Feb-19 00:30N 38°44' W 009°06'0 0.0
2018-Feb-19 00:00N 38°44' W 009°06'0 0.0
2018-Feb-18 23:30N 38°44' W 009°06'0 0.0
2018-Feb-18 22:57N 38°44' W 009°06'0 0.0
2018-Feb-18 22:27N 38°44' W 009°06'0 0.0
2018-Feb-18 22:00N 38°44' W 009°06'0 0.0
2018-Feb-18 21:15N 38°44' W 009°06'0 0.0
2018-Feb-18 20:27N 38°44' W 009°06'0 0.0
2018-Feb-18 19:54N 38°44' W 009°06'0 0.0
2018-Feb-18 19:09N 38°44' W 009°06'0 0.0
2018-Feb-18 18:42N 38°44' W 009°06'0 0.0
2018-Feb-18 18:30N 38°44' W 009°06'0 0.0
2018-Feb-18 18:00N 38°44' W 009°06'0 0.0
2018-Feb-18 17:24N 38°44' W 009°06'0 0.0
2018-Feb-18 16:57N 38°44' W 009°06'0 0.0
2018-Feb-18 14:45N 38°44' W 009°06'0 0.0
2018-Feb-18 14:30N 38°44' W 009°06'0 0.0
2018-Feb-18 14:00N 38°44' W 009°06'0 0.0
2018-Feb-18 13:30N 38°44' W 009°06'0 0.0
2018-Feb-18 12:54N 38°44' W 009°06'0 0.0
2018-Feb-18 12:30N 38°44' W 009°06'0 0.0
2018-Feb-18 11:57N 38°44' W 009°06'0 0.0
2018-Feb-18 11:30N 38°44' W 009°06'0 0.0
2018-Feb-18 11:00N 38°44' W 009°06'0 0.0
2018-Feb-18 10:30N 38°44' W 009°06'0 0.0
2018-Feb-18 10:00N 38°44' W 009°06'0 0.0
2018-Feb-18 09:30N 38°44' W 009°06'2 3.4
2018-Feb-18 09:00N 38°43' W 009°07'3 6.3
2018-Feb-18 08:30N 38°42' W 009°11'3 6.2
2018-Feb-18 08:00N 38°41' W 009°15'3 5.3
2018-Feb-18 07:30N 38°40' W 009°18'3 6.1
2018-Feb-18 07:00N 38°38' W 009°21'3 5.5
2018-Feb-18 06:30N 38°37' W 009°24'3 5.5
2018-Feb-18 06:00N 38°40' W 009°24'0 0.3
2018-Feb-18 05:30N 38°40' W 009°24'0 0.0
2018-Feb-18 05:00N 38°40' W 009°24'0 0.0
2018-Feb-18 04:30N 38°40' W 009°24'0 0.1
2018-Feb-18 04:00N 38°40' W 009°24'0 0.1
2018-Feb-18 03:30N 38°40' W 009°24'0 0.0
2018-Feb-18 03:00N 38°40' W 009°24'0 0.1
2018-Feb-18 02:30N 38°40' W 009°24'0 0.1
2018-Feb-18 01:57N 38°40' W 009°24'0 0.0
2018-Feb-18 01:27N 38°40' W 009°24'0 0.0
2018-Feb-18 01:00N 38°40' W 009°24'0 0.0
2018-Feb-18 00:30N 38°40' W 009°24'0 0.0
2018-Feb-18 00:00N 38°40' W 009°24'0 0.0
2018-Feb-17 23:27N 38°40' W 009°24'0 0.0
2018-Feb-17 22:57N 38°40' W 009°24'0 0.0
2018-Feb-17 22:27N 38°40' W 009°24'0 0.0
2018-Feb-17 22:00N 38°40' W 009°24'0 0.0
2018-Feb-17 21:30N 38°40' W 009°24'0 0.0
2018-Feb-17 21:00N 38°40' W 009°24'0 0.0
2018-Feb-17 20:30N 38°40' W 009°24'0 0.0
2018-Feb-17 20:00N 38°40' W 009°24'0 0.0
2018-Feb-17 19:30N 38°40' W 009°24'0 0.0
2018-Feb-17 19:00N 38°40' W 009°24'0 0.0
2018-Feb-17 18:30N 38°40' W 009°24'0 0.0
2018-Feb-17 18:00N 38°40' W 009°24'0 0.0
2018-Feb-17 17:30N 38°40' W 009°24'0 0.0
2018-Feb-17 17:00N 38°40' W 009°24'0 0.0
2018-Feb-17 16:30N 38°40' W 009°24'0 0.0
2018-Feb-17 16:00N 38°40' W 009°24'0 0.0
2018-Feb-17 15:30N 38°40' W 009°24'0 0.0
2018-Feb-17 15:00N 38°40' W 009°24'0 0.0
2018-Feb-17 14:30N 38°40' W 009°24'0 0.0
2018-Feb-17 13:54N 38°40' W 009°24'0 0.0
2018-Feb-17 13:30N 38°40' W 009°24'0 0.0
2018-Feb-17 13:00N 38°40' W 009°24'0 0.0
2018-Feb-17 12:27N 38°40' W 009°24'0 0.0
2018-Feb-17 11:57N 38°40' W 009°24'0 0.0
2018-Feb-17 11:30N 38°40' W 009°24'0 0.0
2018-Feb-17 11:00N 38°40' W 009°24'0 0.0
2018-Feb-17 10:30N 38°40' W 009°24'0 0.0
2018-Feb-17 10:00N 38°40' W 009°24'0 0.0
2018-Feb-17 09:30N 38°40' W 009°24'0 0.0
2018-Feb-17 09:00N 38°40' W 009°24'0 0.0
2018-Feb-17 08:30N 38°40' W 009°24'0 0.0
2018-Feb-17 08:00N 38°40' W 009°24'0 0.0
2018-Feb-17 07:30N 38°40' W 009°24'0 0.0
2018-Feb-17 07:00N 38°40' W 009°24'0 0.0
2018-Feb-17 06:27N 38°40' W 009°24'0 0.0
2018-Feb-17 06:00N 38°40' W 009°24'0 0.0
2018-Feb-17 05:24N 38°40' W 009°24'0 0.0
2018-Feb-17 04:54N 38°40' W 009°24'0 0.0
2018-Feb-17 04:27N 38°40' W 009°24'0 0.1
2018-Feb-17 04:00N 38°40' W 009°24'0 0.0
2018-Feb-17 03:30N 38°40' W 009°24'0 0.0
2018-Feb-17 03:00N 38°40' W 009°24'0 0.0
2018-Feb-17 02:27N 38°40' W 009°24'0 0.0
2018-Feb-17 02:00N 38°40' W 009°24'0 0.0
2018-Feb-17 01:30N 38°40' W 009°24'0 0.0
2018-Feb-17 01:00N 38°40' W 009°24'0 0.0
2018-Feb-17 00:30N 38°40' W 009°24'0 0.0
2018-Feb-17 00:01N 38°40' W 009°24'2 3.0
2018-Feb-16 23:30N 38°39' W 009°25'4 7.9
2018-Feb-16 23:00N 38°38' W 009°30'4 8.9
2018-Feb-16 22:30N 38°38' W 009°36'4 8.8
2018-Feb-16 22:00N 38°38' W 009°42'4 8.3
2018-Feb-16 21:30N 38°43' W 009°43'4 9.1
2018-Feb-16 21:00N 38°47' W 009°43'5 9.4
2018-Feb-16 20:30N 38°52' W 009°44'5 9.0
2018-Feb-16 20:00N 38°56' W 009°44'5 9.5
2018-Feb-16 19:30N 39°01' W 009°44'5 9.5
2018-Feb-16 19:00N 39°06' W 009°44'5 9.6
2018-Feb-16 18:30N 39°11' W 009°45'5 9.3
2018-Feb-16 18:00N 39°15' W 009°45'5 9.1
2018-Feb-16 17:30N 39°20' W 009°45'4 8.8
2018-Feb-16 17:00N 39°24' W 009°46'5 8.8
2018-Feb-16 16:24N 39°29' W 009°47'4 9.1
2018-Feb-16 15:59N 39°33' W 009°47'6 9.1
2018-Feb-16 15:20N 39°39' W 009°47'  
2018-Feb-12 23:44N 45°35' W 001°29'2 8.0
2018-Feb-12 23:30N 45°36' W 001°26'4 7.6
2018-Feb-12 23:00N 45°37' W 001°21'4 7.8
2018-Feb-12 22:28N 45°39' W 001°16'4 8.6
2018-Feb-12 22:00N 45°39' W 001°10'5 9.4
2018-Feb-12 21:30N 45°37' W 001°05'5 9.8
2018-Feb-12 21:00N 45°33' W 001°01'510.2
2018-Feb-12 20:30N 45°29' W 000°56'510.0
2018-Feb-12 20:00N 45°25' W 000°52'611.1
2018-Feb-12 19:30N 45°20' W 000°47'  

Dump ship's entire track history